This is the latest recevied weather packets stored in our database for station/object PY2KO-3. If no packets are shown the sender has not sent any weather packets the latest 10 day(s).
| Time | Temp. | Humidity | Pressure | Rain* | Wind** | Luminosity | Snow |
|---|---|---|---|---|---|---|---|
| 1778102349 | 23.89° C | 68% | 1020.2 hPa | - | - | - | - |
| 1778101449 | 25° C | 67% | 1020 hPa | - | - | - | - |
| 1778100549 | 25.56° C | 66% | 1019.8 hPa | - | - | - | - |
| 1778099649 | 26.11° C | 63% | 1019.4 hPa | - | - | - | - |
| 1778098801 | 26.67° C | 60% | 1019.2 hPa | - | - | - | - |
| 1778097852 | 27.78° C | 59% | 1018.5 hPa | - | - | - | - |
| 1778097035 | 27.78° C | 57% | 1018.5 hPa | - | - | - | - |
| 1778096052 | 28.33° C | 52% | 1018.2 hPa | - | - | - | - |
| 1778095149 | 29.44° C | 48% | 1017.8 hPa | - | - | - | - |
| 1778094250 | 29.44° C | 46% | 1017.8 hPa | - | - | - | - |
| 1778093354 | 29.44° C | 38% | 1017.7 hPa | - | - | - | - |
| 1778092449 | 30° C | 39% | 1017.8 hPa | - | - | - | - |
| 1778091549 | 30° C | 38% | 1017.8 hPa | - | - | - | - |
| 1778090649 | 30° C | 38% | 1018 hPa | - | - | - | - |
| 1778089750 | 30° C | 36% | 1018.3 hPa | - | - | - | - |
| 1778088849 | 30° C | 38% | 1018.2 hPa | - | - | - | - |
| 1778087950 | 30° C | 38% | 1018.3 hPa | - | - | - | - |
| 1778087056 | 29.44° C | 38% | 1018.7 hPa | - | - | - | - |
| 1778086149 | 30° C | 43% | 1018.8 hPa | - | - | - | - |
| 1778085249 | 29.44° C | 41% | 1019.3 hPa | - | - | - | - |
| 1778084349 | 28.89° C | 40% | 1019.6 hPa | - | - | - | - |
| 1778083449 | 28.89° C | 42% | 1020 hPa | - | - | - | - |
| 1778082550 | 29.44° C | 43% | 1019.9 hPa | - | - | - | - |
| 1778081649 | 28.89° C | 41% | 1020.5 hPa | - | - | - | - |
| 1778080756 | 28.89° C | 44% | 1020.8 hPa | - | - | - | - |
* Rain since midnight (hover to see other rain measurements)
** Current wind speed in m/s (hover to see current wind gust speed)